sensor_id;sensor_type;location;lat;lon;timestamp;P1;durP1;ratioP1;P2;durP2;ratioP2
1525;SDS011;756;49.982;8.240;2022-07-21T00:00:54;18.23;;;16.43;;
1525;SDS011;756;49.982;8.240;2022-07-21T00:03:21;19.93;;;15.93;;
1525;SDS011;756;49.982;8.240;2022-07-21T00:05:48;16.80;;;15.00;;
1525;SDS011;756;49.982;8.240;2022-07-21T00:08:15;18.23;;;16.33;;
1525;SDS011;756;49.982;8.240;2022-07-21T00:10:42;17.53;;;15.77;;
1525;SDS011;756;49.982;8.240;2022-07-21T00:13:08;18.63;;;15.60;;
1525;SDS011;756;49.982;8.240;2022-07-21T00:15:35;19.80;;;16.47;;
1525;SDS011;756;49.982;8.240;2022-07-21T00:18:02;18.33;;;15.57;;
1525;SDS011;756;49.982;8.240;2022-07-21T00:20:29;18.03;;;16.13;;
1525;SDS011;756;49.982;8.240;2022-07-21T00:22:56;17.40;;;15.67;;
1525;SDS011;756;49.982;8.240;2022-07-21T00:25:25;17.40;;;15.60;;
1525;SDS011;756;49.982;8.240;2022-07-21T00:27:59;19.17;;;15.80;;
1525;SDS011;756;49.982;8.240;2022-07-21T00:30:25;16.47;;;14.93;;
1525;SDS011;756;49.982;8.240;2022-07-21T00:32:52;18.07;;;16.27;;
1525;SDS011;756;49.982;8.240;2022-07-21T00:35:19;18.17;;;16.27;;
1525;SDS011;756;49.982;8.240;2022-07-21T00:37:46;22.60;;;16.53;;
1525;SDS011;756;49.982;8.240;2022-07-21T00:40:13;18.07;;;15.77;;
1525;SDS011;756;49.982;8.240;2022-07-21T00:42:42;21.00;;;15.43;;
1525;SDS011;756;49.982;8.240;2022-07-21T00:45:10;16.70;;;15.00;;
1525;SDS011;756;49.982;8.240;2022-07-21T00:47:37;17.90;;;15.43;;
1525;SDS011;756;49.982;8.240;2022-07-21T00:50:06;17.27;;;15.57;;
1525;SDS011;756;49.982;8.240;2022-07-21T00:52:35;17.07;;;13.87;;
1525;SDS011;756;49.982;8.240;2022-07-21T00:55:02;17.53;;;14.30;;
1525;SDS011;756;49.982;8.240;2022-07-21T00:57:30;19.93;;;14.43;;
1525;SDS011;756;49.982;8.240;2022-07-21T00:59:57;15.90;;;14.20;;
1525;SDS011;756;49.982;8.240;2022-07-21T01:02:24;16.23;;;14.50;;
1525;SDS011;756;49.982;8.240;2022-07-21T01:04:53;15.50;;;14.00;;
1525;SDS011;756;49.982;8.240;2022-07-21T01:07:20;15.47;;;13.87;;
1525;SDS011;756;49.982;8.240;2022-07-21T01:09:47;16.07;;;14.47;;
1525;SDS011;756;49.982;8.240;2022-07-21T01:12:15;17.70;;;14.90;;
1525;SDS011;756;49.982;8.240;2022-07-21T01:14:43;15.37;;;13.97;;
1525;SDS011;756;49.982;8.240;2022-07-21T01:17:11;16.07;;;14.43;;
1525;SDS011;756;49.982;8.240;2022-07-21T01:19:37;18.23;;;14.30;;
1525;SDS011;756;49.982;8.240;2022-07-21T01:22:04;14.90;;;13.47;;
1525;SDS011;756;49.982;8.240;2022-07-21T01:24:32;17.37;;;15.53;;
1525;SDS011;756;49.982;8.240;2022-07-21T01:26:59;16.43;;;14.73;;
1525;SDS011;756;49.982;8.240;2022-07-21T01:29:26;17.33;;;15.50;;
1525;SDS011;756;49.982;8.240;2022-07-21T01:31:52;19.70;;;17.23;;
1525;SDS011;756;49.982;8.240;2022-07-21T01:34:19;16.30;;;14.73;;
1525;SDS011;756;49.982;8.240;2022-07-21T01:36:46;16.57;;;14.77;;
1525;SDS011;756;49.982;8.240;2022-07-21T01:39:13;17.17;;;14.20;;
1525;SDS011;756;49.982;8.240;2022-07-21T01:41:59;16.73;;;15.10;;
1525;SDS011;756;49.982;8.240;2022-07-21T01:44:27;14.03;;;12.53;;
1525;SDS011;756;49.982;8.240;2022-07-21T01:46:54;16.30;;;12.83;;
1525;SDS011;756;49.982;8.240;2022-07-21T01:49:21;13.20;;;11.17;;
1525;SDS011;756;49.982;8.240;2022-07-21T01:51:48;12.83;;;11.37;;
1525;SDS011;756;49.982;8.240;2022-07-21T01:54:16;13.63;;;11.10;;
1525;SDS011;756;49.982;8.240;2022-07-21T01:56:49;19.30;;;10.70;;
1525;SDS011;756;49.982;8.240;2022-07-21T01:59:15;13.27;;;11.97;;
1525;SDS011;756;49.982;8.240;2022-07-21T02:01:43;11.97;;;10.10;;
1525;SDS011;756;49.982;8.240;2022-07-21T02:04:09;10.37;;;9.40;;
1525;SDS011;756;49.982;8.240;2022-07-21T02:06:37;9.43;;;8.50;;
1525;SDS011;756;49.982;8.240;2022-07-21T02:09:04;18.90;;;9.17;;
1525;SDS011;756;49.982;8.240;2022-07-21T02:11:33;8.70;;;7.90;;
1525;SDS011;756;49.982;8.240;2022-07-21T02:13:59;7.10;;;6.43;;
1525;SDS011;756;49.982;8.240;2022-07-21T02:16:27;9.53;;;6.90;;
1525;SDS011;756;49.982;8.240;2022-07-21T02:18:54;7.23;;;6.40;;
1525;SDS011;756;49.982;8.240;2022-07-21T02:21:22;8.90;;;7.10;;
1525;SDS011;756;49.982;8.240;2022-07-21T02:23:49;7.47;;;6.80;;
1525;SDS011;756;49.982;8.240;2022-07-21T02:26:16;7.37;;;6.67;;
1525;SDS011;756;49.982;8.240;2022-07-21T02:28:43;8.23;;;6.73;;
1525;SDS011;756;49.982;8.240;2022-07-21T02:31:10;6.70;;;5.47;;
1525;SDS011;756;49.982;8.240;2022-07-21T02:33:36;6.10;;;5.50;;
1525;SDS011;756;49.982;8.240;2022-07-21T02:36:04;6.03;;;5.47;;
1525;SDS011;756;49.982;8.240;2022-07-21T02:38:31;7.13;;;6.40;;
1525;SDS011;756;49.982;8.240;2022-07-21T02:40:58;6.70;;;5.60;;
1525;SDS011;756;49.982;8.240;2022-07-21T02:43:24;7.57;;;5.73;;
1525;SDS011;756;49.982;8.240;2022-07-21T02:45:54;6.17;;;5.63;;
1525;SDS011;756;49.982;8.240;2022-07-21T02:48:21;6.20;;;5.70;;
1525;SDS011;756;49.982;8.240;2022-07-21T02:50:48;6.27;;;5.43;;
1525;SDS011;756;49.982;8.240;2022-07-21T02:53:16;6.30;;;5.70;;
1525;SDS011;756;49.982;8.240;2022-07-21T02:55:46;6.40;;;5.63;;
1525;SDS011;756;49.982;8.240;2022-07-21T02:58:14;5.97;;;5.37;;
1525;SDS011;756;49.982;8.240;2022-07-21T03:00:42;6.70;;;5.87;;
1525;SDS011;756;49.982;8.240;2022-07-21T03:03:16;5.73;;;5.23;;
1525;SDS011;756;49.982;8.240;2022-07-21T03:05:43;6.57;;;5.80;;
1525;SDS011;756;49.982;8.240;2022-07-21T03:08:10;6.63;;;6.03;;
1525;SDS011;756;49.982;8.240;2022-07-21T03:10:38;7.50;;;5.93;;
1525;SDS011;756;49.982;8.240;2022-07-21T03:13:05;6.90;;;6.13;;
1525;SDS011;756;49.982;8.240;2022-07-21T03:15:32;5.93;;;5.43;;
1525;SDS011;756;49.982;8.240;2022-07-21T03:18:00;6.23;;;5.63;;
1525;SDS011;756;49.982;8.240;2022-07-21T03:20:28;8.80;;;7.13;;
1525;SDS011;756;49.982;8.240;2022-07-21T03:22:56;6.73;;;5.63;;
1525;SDS011;756;49.982;8.240;2022-07-21T03:25:23;7.57;;;6.40;;
1525;SDS011;756;49.982;8.240;2022-07-21T03:27:51;6.23;;;5.63;;
1525;SDS011;756;49.982;8.240;2022-07-21T03:30:17;5.90;;;5.27;;
1525;SDS011;756;49.982;8.240;2022-07-21T03:32:45;6.73;;;6.03;;
1525;SDS011;756;49.982;8.240;2022-07-21T03:35:12;7.90;;;6.50;;
1525;SDS011;756;49.982;8.240;2022-07-21T03:37:42;6.60;;;5.93;;
1525;SDS011;756;49.982;8.240;2022-07-21T03:40:20;7.10;;;6.40;;
1525;SDS011;756;49.982;8.240;2022-07-21T03:42:52;7.33;;;5.90;;
1525;SDS011;756;49.982;8.240;2022-07-21T03:45:21;7.10;;;6.40;;
1525;SDS011;756;49.982;8.240;2022-07-21T03:47:48;6.77;;;6.13;;
1525;SDS011;756;49.982;8.240;2022-07-21T03:50:15;7.27;;;6.20;;
1525;SDS011;756;49.982;8.240;2022-07-21T03:52:45;8.80;;;7.40;;
1525;SDS011;756;49.982;8.240;2022-07-21T03:55:12;6.77;;;6.17;;
1525;SDS011;756;49.982;8.240;2022-07-21T03:57:49;7.60;;;6.70;;
1525;SDS011;756;49.982;8.240;2022-07-21T04:02:58;10.10;;;7.83;;
1525;SDS011;756;49.982;8.240;2022-07-21T04:05:26;6.93;;;6.23;;
1525;SDS011;756;49.982;8.240;2022-07-21T04:07:53;7.17;;;6.47;;
1525;SDS011;756;49.982;8.240;2022-07-21T04:10:22;6.80;;;6.20;;
1525;SDS011;756;49.982;8.240;2022-07-21T04:12:51;7.43;;;6.60;;
1525;SDS011;756;49.982;8.240;2022-07-21T04:15:18;10.00;;;8.50;;
1525;SDS011;756;49.982;8.240;2022-07-21T04:17:46;8.93;;;8.13;;
1525;SDS011;756;49.982;8.240;2022-07-21T04:20:14;7.57;;;6.70;;
1525;SDS011;756;49.982;8.240;2022-07-21T04:22:43;7.70;;;7.00;;
1525;SDS011;756;49.982;8.240;2022-07-21T04:25:11;8.10;;;7.13;;
1525;SDS011;756;49.982;8.240;2022-07-21T04:27:39;9.90;;;6.83;;
1525;SDS011;756;49.982;8.240;2022-07-21T04:30:07;7.60;;;6.90;;
1525;SDS011;756;49.982;8.240;2022-07-21T04:32:38;8.70;;;7.67;;
1525;SDS011;756;49.982;8.240;2022-07-21T04:35:05;8.77;;;7.43;;
1525;SDS011;756;49.982;8.240;2022-07-21T04:37:32;7.47;;;6.77;;
1525;SDS011;756;49.982;8.240;2022-07-21T04:39:59;7.53;;;6.77;;
1525;SDS011;756;49.982;8.240;2022-07-21T04:42:26;7.90;;;7.17;;
1525;SDS011;756;49.982;8.240;2022-07-21T04:44:53;8.70;;;7.77;;
1525;SDS011;756;49.982;8.240;2022-07-21T04:47:20;9.20;;;8.30;;
1525;SDS011;756;49.982;8.240;2022-07-21T04:49:47;7.97;;;7.03;;
1525;SDS011;756;49.982;8.240;2022-07-21T04:52:14;7.50;;;6.80;;
1525;SDS011;756;49.982;8.240;2022-07-21T04:54:41;8.00;;;7.20;;
1525;SDS011;756;49.982;8.240;2022-07-21T04:57:08;9.43;;;8.43;;
1525;SDS011;756;49.982;8.240;2022-07-21T04:59:35;8.20;;;7.40;;
1525;SDS011;756;49.982;8.240;2022-07-21T05:02:02;7.70;;;6.90;;
1525;SDS011;756;49.982;8.240;2022-07-21T05:04:29;8.73;;;7.37;;
1525;SDS011;756;49.982;8.240;2022-07-21T05:06:56;8.57;;;7.70;;
1525;SDS011;756;49.982;8.240;2022-07-21T05:09:23;8.57;;;7.77;;
1525;SDS011;756;49.982;8.240;2022-07-21T05:11:50;8.40;;;7.60;;
1525;SDS011;756;49.982;8.240;2022-07-21T05:14:17;8.60;;;7.23;;
1525;SDS011;756;49.982;8.240;2022-07-21T05:16:44;8.97;;;8.17;;
1525;SDS011;756;49.982;8.240;2022-07-21T05:19:11;8.00;;;7.20;;
1525;SDS011;756;49.982;8.240;2022-07-21T05:21:37;8.50;;;7.80;;
1525;SDS011;756;49.982;8.240;2022-07-21T05:24:04;7.30;;;6.60;;
1525;SDS011;756;49.982;8.240;2022-07-21T05:26:32;7.93;;;7.17;;
1525;SDS011;756;49.982;8.240;2022-07-21T05:28:58;8.03;;;7.23;;
1525;SDS011;756;49.982;8.240;2022-07-21T05:31:25;8.67;;;7.90;;
1525;SDS011;756;49.982;8.240;2022-07-21T05:33:52;9.67;;;7.60;;
1525;SDS011;756;49.982;8.240;2022-07-21T05:36:19;7.90;;;7.20;;
1525;SDS011;756;49.982;8.240;2022-07-21T05:38:46;8.70;;;7.73;;
1525;SDS011;756;49.982;8.240;2022-07-21T05:41:13;9.03;;;7.50;;
1525;SDS011;756;49.982;8.240;2022-07-21T05:43:40;8.87;;;7.40;;
1525;SDS011;756;49.982;8.240;2022-07-21T05:46:07;9.87;;;8.13;;
1525;SDS011;756;49.982;8.240;2022-07-21T05:48:34;9.87;;;7.97;;
1525;SDS011;756;49.982;8.240;2022-07-21T05:51:00;8.40;;;7.60;;
1525;SDS011;756;49.982;8.240;2022-07-21T05:53:27;8.23;;;7.43;;
1525;SDS011;756;49.982;8.240;2022-07-21T05:55:55;7.40;;;6.70;;
1525;SDS011;756;49.982;8.240;2022-07-21T05:58:23;10.60;;;7.80;;
1525;SDS011;756;49.982;8.240;2022-07-21T06:00:54;7.40;;;6.70;;
1525;SDS011;756;49.982;8.240;2022-07-21T06:03:39;7.90;;;7.20;;
1525;SDS011;756;49.982;8.240;2022-07-21T06:06:11;7.60;;;6.90;;
1525;SDS011;756;49.982;8.240;2022-07-21T06:08:40;8.27;;;7.47;;
1525;SDS011;756;49.982;8.240;2022-07-21T06:11:07;8.37;;;7.50;;
1525;SDS011;756;49.982;8.240;2022-07-21T06:13:35;8.80;;;8.00;;
1525;SDS011;756;49.982;8.240;2022-07-21T06:16:02;7.80;;;7.10;;
1525;SDS011;756;49.982;8.240;2022-07-21T06:18:30;8.40;;;7.50;;
1525;SDS011;756;49.982;8.240;2022-07-21T06:20:56;9.10;;;8.20;;
1525;SDS011;756;49.982;8.240;2022-07-21T06:23:23;7.70;;;6.90;;
1525;SDS011;756;49.982;8.240;2022-07-21T06:25:51;9.50;;;7.87;;
1525;SDS011;756;49.982;8.240;2022-07-21T06:28:18;9.93;;;8.10;;
1525;SDS011;756;49.982;8.240;2022-07-21T06:30:46;10.37;;;7.87;;
1525;SDS011;756;49.982;8.240;2022-07-21T06:33:14;8.43;;;7.63;;
1525;SDS011;756;49.982;8.240;2022-07-21T06:35:41;9.80;;;8.80;;
1525;SDS011;756;49.982;8.240;2022-07-21T06:38:08;8.20;;;7.30;;
1525;SDS011;756;49.982;8.240;2022-07-21T06:40:38;8.03;;;7.20;;
1525;SDS011;756;49.982;8.240;2022-07-21T06:43:08;8.93;;;6.93;;
1525;SDS011;756;49.982;8.240;2022-07-21T06:45:54;8.03;;;7.33;;
1525;SDS011;756;49.982;8.240;2022-07-21T06:48:22;7.90;;;7.10;;
1525;SDS011;756;49.982;8.240;2022-07-21T06:50:49;11.73;;;8.93;;
1525;SDS011;756;49.982;8.240;2022-07-21T06:53:17;8.00;;;7.20;;
1525;SDS011;756;49.982;8.240;2022-07-21T06:55:43;7.90;;;7.10;;
1525;SDS011;756;49.982;8.240;2022-07-21T06:58:11;8.30;;;6.77;;
1525;SDS011;756;49.982;8.240;2022-07-21T07:00:44;7.47;;;6.77;;
1525;SDS011;756;49.982;8.240;2022-07-21T07:03:12;7.27;;;6.57;;
1525;SDS011;756;49.982;8.240;2022-07-21T07:05:41;7.87;;;7.17;;
1525;SDS011;756;49.982;8.240;2022-07-21T07:08:09;7.27;;;6.57;;
1525;SDS011;756;49.982;8.240;2022-07-21T07:10:38;8.47;;;7.53;;
1525;SDS011;756;49.982;8.240;2022-07-21T07:13:13;9.23;;;6.97;;
1525;SDS011;756;49.982;8.240;2022-07-21T07:16:01;9.73;;;7.67;;
1525;SDS011;756;49.982;8.240;2022-07-21T07:18:28;9.30;;;6.83;;
1525;SDS011;756;49.982;8.240;2022-07-21T07:20:55;7.93;;;6.77;;
1525;SDS011;756;49.982;8.240;2022-07-21T07:23:21;7.07;;;6.37;;
1525;SDS011;756;49.982;8.240;2022-07-21T07:25:48;9.27;;;7.00;;
1525;SDS011;756;49.982;8.240;2022-07-21T07:28:16;7.27;;;6.47;;
1525;SDS011;756;49.982;8.240;2022-07-21T07:30:43;7.47;;;6.70;;
1525;SDS011;756;49.982;8.240;2022-07-21T07:33:09;7.73;;;6.97;;
1525;SDS011;756;49.982;8.240;2022-07-21T07:35:36;9.40;;;6.67;;
1525;SDS011;756;49.982;8.240;2022-07-21T07:38:03;6.80;;;6.20;;
1525;SDS011;756;49.982;8.240;2022-07-21T07:40:30;5.80;;;5.23;;
1525;SDS011;756;49.982;8.240;2022-07-21T07:42:57;6.83;;;6.23;;
1525;SDS011;756;49.982;8.240;2022-07-21T07:45:32;7.37;;;6.60;;
1525;SDS011;756;49.982;8.240;2022-07-21T07:48:03;6.60;;;6.00;;
1525;SDS011;756;49.982;8.240;2022-07-21T07:50:30;7.77;;;6.93;;
1525;SDS011;756;49.982;8.240;2022-07-21T07:52:57;6.93;;;6.33;;
1525;SDS011;756;49.982;8.240;2022-07-21T07:55:24;7.00;;;6.40;;
1525;SDS011;756;49.982;8.240;2022-07-21T07:57:51;8.03;;;7.10;;
1525;SDS011;756;49.982;8.240;2022-07-21T08:00:18;8.10;;;7.30;;
1525;SDS011;756;49.982;8.240;2022-07-21T08:03:07;8.00;;;7.20;;
1525;SDS011;756;49.982;8.240;2022-07-21T08:05:34;5.73;;;5.30;;
1525;SDS011;756;49.982;8.240;2022-07-21T08:08:01;7.17;;;6.47;;
1525;SDS011;756;49.982;8.240;2022-07-21T08:10:28;9.70;;;7.37;;
1525;SDS011;756;49.982;8.240;2022-07-21T08:13:12;7.47;;;6.70;;
1525;SDS011;756;49.982;8.240;2022-07-21T08:15:41;7.10;;;6.50;;
1525;SDS011;756;49.982;8.240;2022-07-21T08:18:09;7.87;;;6.50;;
1525;SDS011;756;49.982;8.240;2022-07-21T08:20:36;7.57;;;6.37;;
1525;SDS011;756;49.982;8.240;2022-07-21T08:23:04;6.70;;;6.10;;
1525;SDS011;756;49.982;8.240;2022-07-21T08:25:31;7.20;;;6.50;;
1525;SDS011;756;49.982;8.240;2022-07-21T08:27:58;7.07;;;6.47;;
1525;SDS011;756;49.982;8.240;2022-07-21T08:30:25;7.10;;;6.40;;
1525;SDS011;756;49.982;8.240;2022-07-21T08:32:56;10.70;;;6.90;;
1525;SDS011;756;49.982;8.240;2022-07-21T08:35:29;7.23;;;6.50;;
1525;SDS011;756;49.982;8.240;2022-07-21T08:37:56;7.00;;;6.30;;
1525;SDS011;756;49.982;8.240;2022-07-21T08:40:28;6.40;;;5.83;;
1525;SDS011;756;49.982;8.240;2022-07-21T08:42:56;6.03;;;5.40;;
1525;SDS011;756;49.982;8.240;2022-07-21T08:45:23;7.33;;;5.97;;
1525;SDS011;756;49.982;8.240;2022-07-21T08:47:51;6.00;;;5.50;;
1525;SDS011;756;49.982;8.240;2022-07-21T08:50:19;6.33;;;4.80;;
1525;SDS011;756;49.982;8.240;2022-07-21T08:52:48;6.50;;;4.80;;
1525;SDS011;756;49.982;8.240;2022-07-21T08:55:24;6.20;;;5.60;;
1525;SDS011;756;49.982;8.240;2022-07-21T08:57:54;5.67;;;5.17;;
1525;SDS011;756;49.982;8.240;2022-07-21T09:00:20;8.50;;;7.13;;
1525;SDS011;756;49.982;8.240;2022-07-21T09:02:47;8.10;;;5.20;;
1525;SDS011;756;49.982;8.240;2022-07-21T09:05:14;5.57;;;5.17;;
1525;SDS011;756;49.982;8.240;2022-07-21T09:07:48;6.50;;;5.30;;
1525;SDS011;756;49.982;8.240;2022-07-21T09:10:15;8.37;;;5.13;;
1525;SDS011;756;49.982;8.240;2022-07-21T09:12:48;5.20;;;4.70;;
1525;SDS011;756;49.982;8.240;2022-07-21T09:15:17;6.60;;;4.50;;
1525;SDS011;756;49.982;8.240;2022-07-21T09:17:46;7.93;;;4.70;;
1525;SDS011;756;49.982;8.240;2022-07-21T09:20:39;5.20;;;4.80;;
1525;SDS011;756;49.982;8.240;2022-07-21T09:23:13;5.40;;;4.90;;
1525;SDS011;756;49.982;8.240;2022-07-21T09:25:42;4.57;;;4.27;;
1525;SDS011;756;49.982;8.240;2022-07-21T09:28:17;4.67;;;4.33;;
1525;SDS011;756;49.982;8.240;2022-07-21T09:33:42;5.20;;;4.60;;
1525;SDS011;756;49.982;8.240;2022-07-21T09:36:14;5.10;;;4.40;;
1525;SDS011;756;49.982;8.240;2022-07-21T09:41:17;4.77;;;3.87;;
1525;SDS011;756;49.982;8.240;2022-07-21T09:43:52;4.47;;;4.07;;
1525;SDS011;756;49.982;8.240;2022-07-21T09:46:22;3.77;;;3.37;;
1525;SDS011;756;49.982;8.240;2022-07-21T09:48:51;3.93;;;3.47;;
1525;SDS011;756;49.982;8.240;2022-07-21T09:51:40;4.20;;;3.90;;
1525;SDS011;756;49.982;8.240;2022-07-21T09:54:10;4.63;;;4.30;;
1525;SDS011;756;49.982;8.240;2022-07-21T09:56:40;4.33;;;4.00;;
1525;SDS011;756;49.982;8.240;2022-07-21T09:59:08;4.77;;;3.60;;
1525;SDS011;756;49.982;8.240;2022-07-21T10:01:37;4.13;;;3.70;;
1525;SDS011;756;49.982;8.240;2022-07-21T10:04:05;4.33;;;4.00;;
1525;SDS011;756;49.982;8.240;2022-07-21T10:06:33;3.50;;;3.23;;
1525;SDS011;756;49.982;8.240;2022-07-21T10:09:05;3.80;;;3.50;;
1525;SDS011;756;49.982;8.240;2022-07-21T10:11:36;5.32;;;3.70;;
1525;SDS011;756;49.982;8.240;2022-07-21T10:14:06;3.92;;;3.63;;
1525;SDS011;756;49.982;8.240;2022-07-21T10:16:38;3.63;;;3.33;;
1525;SDS011;756;49.982;8.240;2022-07-21T10:22:16;4.27;;;3.97;;
1525;SDS011;756;49.982;8.240;2022-07-21T10:24:49;4.03;;;3.50;;
1525;SDS011;756;49.982;8.240;2022-07-21T10:27:17;3.93;;;3.63;;
1525;SDS011;756;49.982;8.240;2022-07-21T10:32:15;4.30;;;3.47;;
1525;SDS011;756;49.982;8.240;2022-07-21T10:34:43;3.40;;;3.20;;
1525;SDS011;756;49.982;8.240;2022-07-21T10:37:10;3.80;;;3.50;;
1525;SDS011;756;49.982;8.240;2022-07-21T10:39:57;3.33;;;3.03;;
1525;SDS011;756;49.982;8.240;2022-07-21T10:42:24;4.87;;;3.67;;
1525;SDS011;756;49.982;8.240;2022-07-21T10:44:51;3.77;;;3.47;;
1525;SDS011;756;49.982;8.240;2022-07-21T10:47:21;4.03;;;3.63;;
1525;SDS011;756;49.982;8.240;2022-07-21T10:49:53;3.70;;;3.27;;
1525;SDS011;756;49.982;8.240;2022-07-21T10:55:13;4.20;;;3.20;;
1525;SDS011;756;49.982;8.240;2022-07-21T10:57:43;3.40;;;3.00;;
1525;SDS011;756;49.982;8.240;2022-07-21T11:02:52;3.80;;;3.50;;
1525;SDS011;756;49.982;8.240;2022-07-21T11:05:20;3.90;;;3.53;;
1525;SDS011;756;49.982;8.240;2022-07-21T11:10:51;4.10;;;3.70;;
1525;SDS011;756;49.982;8.240;2022-07-21T11:13:21;3.77;;;3.30;;
1525;SDS011;756;49.982;8.240;2022-07-21T11:15:57;4.00;;;3.40;;
1525;SDS011;756;49.982;8.240;2022-07-21T11:18:28;6.03;;;4.43;;
1525;SDS011;756;49.982;8.240;2022-07-21T11:21:03;7.80;;;4.30;;
1525;SDS011;756;49.982;8.240;2022-07-21T11:23:34;5.83;;;3.50;;
1525;SDS011;756;49.982;8.240;2022-07-21T11:26:02;4.97;;;3.67;;
1525;SDS011;756;49.982;8.240;2022-07-21T11:28:29;4.23;;;3.63;;
1525;SDS011;756;49.982;8.240;2022-07-21T11:31:10;4.17;;;3.87;;
1525;SDS011;756;49.982;8.240;2022-07-21T11:33:40;4.53;;;4.13;;
1525;SDS011;756;49.982;8.240;2022-07-21T11:36:09;5.80;;;4.23;;
1525;SDS011;756;49.982;8.240;2022-07-21T11:38:55;4.63;;;4.17;;
1525;SDS011;756;49.982;8.240;2022-07-21T11:41:27;5.00;;;4.47;;
1525;SDS011;756;49.982;8.240;2022-07-21T11:43:54;4.00;;;3.60;;
1525;SDS011;756;49.982;8.240;2022-07-21T11:46:21;5.43;;;4.67;;
1525;SDS011;756;49.982;8.240;2022-07-21T11:48:59;4.63;;;4.23;;
1525;SDS011;756;49.982;8.240;2022-07-21T11:51:30;5.83;;;5.30;;
1525;SDS011;756;49.982;8.240;2022-07-21T11:53:57;6.40;;;5.80;;
1525;SDS011;756;49.982;8.240;2022-07-21T11:56:23;5.60;;;5.10;;
1525;SDS011;756;49.982;8.240;2022-07-21T11:58:50;5.10;;;4.63;;
1525;SDS011;756;49.982;8.240;2022-07-21T12:01:51;5.87;;;5.00;;
1525;SDS011;756;49.982;8.240;2022-07-21T12:07:00;5.70;;;5.20;;
1525;SDS011;756;49.982;8.240;2022-07-21T12:09:28;5.33;;;4.93;;
1525;SDS011;756;49.982;8.240;2022-07-21T12:11:55;5.87;;;5.30;;
1525;SDS011;756;49.982;8.240;2022-07-21T12:14:37;5.60;;;4.80;;
1525;SDS011;756;49.982;8.240;2022-07-21T12:17:12;5.67;;;5.17;;
1525;SDS011;756;49.982;8.240;2022-07-21T12:19:40;5.00;;;4.60;;
1525;SDS011;756;49.982;8.240;2022-07-21T12:22:08;5.23;;;4.63;;
1525;SDS011;756;49.982;8.240;2022-07-21T12:24:51;6.33;;;5.40;;
1525;SDS011;756;49.982;8.240;2022-07-21T12:27:20;4.60;;;4.20;;
1525;SDS011;756;49.982;8.240;2022-07-21T12:29:48;5.17;;;4.67;;
1525;SDS011;756;49.982;8.240;2022-07-21T12:32:15;5.90;;;5.03;;
1525;SDS011;756;49.982;8.240;2022-07-21T12:35:18;6.17;;;5.53;;
1525;SDS011;756;49.982;8.240;2022-07-21T12:37:57;6.13;;;5.10;;
1525;SDS011;756;49.982;8.240;2022-07-21T12:40:31;5.50;;;5.00;;
1525;SDS011;756;49.982;8.240;2022-07-21T12:43:02;7.10;;;6.17;;
1525;SDS011;756;49.982;8.240;2022-07-21T12:45:43;6.07;;;5.53;;
1525;SDS011;756;49.982;8.240;2022-07-21T12:48:11;6.50;;;5.80;;
1525;SDS011;756;49.982;8.240;2022-07-21T12:50:39;7.57;;;5.37;;
1525;SDS011;756;49.982;8.240;2022-07-21T12:53:10;5.50;;;5.00;;
1525;SDS011;756;49.982;8.240;2022-07-21T12:55:38;6.17;;;5.53;;
1525;SDS011;756;49.982;8.240;2022-07-21T12:58:05;6.63;;;5.87;;
1525;SDS011;756;49.982;8.240;2022-07-21T13:00:32;6.43;;;5.83;;
1525;SDS011;756;49.982;8.240;2022-07-21T13:03:00;7.23;;;5.93;;
1525;SDS011;756;49.982;8.240;2022-07-21T13:05:27;6.00;;;5.50;;
1525;SDS011;756;49.982;8.240;2022-07-21T13:07:54;6.77;;;5.93;;
1525;SDS011;756;49.982;8.240;2022-07-21T13:10:21;7.00;;;5.93;;
1525;SDS011;756;49.982;8.240;2022-07-21T13:12:48;7.90;;;7.10;;
1525;SDS011;756;49.982;8.240;2022-07-21T13:15:15;5.67;;;5.17;;
1525;SDS011;756;49.982;8.240;2022-07-21T13:17:43;7.07;;;6.43;;
1525;SDS011;756;49.982;8.240;2022-07-21T13:20:10;7.00;;;6.17;;
1525;SDS011;756;49.982;8.240;2022-07-21T13:22:37;6.30;;;5.70;;
1525;SDS011;756;49.982;8.240;2022-07-21T13:25:04;6.40;;;5.80;;
1525;SDS011;756;49.982;8.240;2022-07-21T13:27:33;6.40;;;5.90;;
1525;SDS011;756;49.982;8.240;2022-07-21T13:30:01;5.60;;;5.20;;
1525;SDS011;756;49.982;8.240;2022-07-21T13:32:33;6.60;;;6.00;;
1525;SDS011;756;49.982;8.240;2022-07-21T13:35:00;6.07;;;4.93;;
1525;SDS011;756;49.982;8.240;2022-07-21T13:37:47;5.90;;;5.40;;
1525;SDS011;756;49.982;8.240;2022-07-21T13:40:14;5.83;;;5.33;;
1525;SDS011;756;49.982;8.240;2022-07-21T13:43:02;5.90;;;5.30;;
1525;SDS011;756;49.982;8.240;2022-07-21T13:45:49;6.20;;;5.63;;
1525;SDS011;756;49.982;8.240;2022-07-21T13:48:16;7.80;;;6.40;;
1525;SDS011;756;49.982;8.240;2022-07-21T13:50:43;6.60;;;6.10;;
1525;SDS011;756;49.982;8.240;2022-07-21T13:53:09;7.60;;;5.80;;
1525;SDS011;756;49.982;8.240;2022-07-21T13:55:36;11.40;;;6.53;;
1525;SDS011;756;49.982;8.240;2022-07-21T13:58:03;7.97;;;6.90;;
1525;SDS011;756;49.982;8.240;2022-07-21T14:00:32;6.60;;;6.00;;
